Terminal Aerodrome Forecast
Issued by NWS Omaha/Valley, NE

Home | Current Version | Previous Version | Text Only | Print | Product List | Glossary Off
Versions: 1 2 3 4 5 6 7 8 9 10 11 12 13 14 15 16 17 18

000
FTUS43 KOAX 310733 AAA
TAFOFK
TAF AMD
KOFK 310733Z 3108/0106 00000KT 1SM BR VV003
      TEMPO 3110/3113 1/2SM FG VV002
     FM311400 04003KT 2SM BR BKN006
     FM311600 08007KT P6SM SKC=

USA.gov is the U.S. government's official web portal to all federal, state and local government web resources and services.